createdAt,value
2018-08-16T00:00:49.969Z,993.75
2018-08-16T00:01:49.972Z,993.76
2018-08-16T00:02:49.968Z,993.76
2018-08-16T00:03:49.969Z,993.72
2018-08-16T00:04:49.971Z,993.76
2018-08-16T00:05:49.972Z,993.75
2018-08-16T00:06:49.978Z,993.73
2018-08-16T00:07:49.974Z,993.74
2018-08-16T00:08:49.975Z,993.73
2018-08-16T00:09:49.978Z,993.7
2018-08-16T00:10:49.977Z,993.71
2018-08-16T00:11:49.976Z,993.67
2018-08-16T00:12:49.980Z,993.68
2018-08-16T00:13:49.980Z,993.65
2018-08-16T00:14:49.977Z,993.69
2018-08-16T00:15:49.980Z,993.69
2018-08-16T00:16:49.981Z,993.68
2018-08-16T00:17:49.988Z,993.72
2018-08-16T00:18:49.983Z,993.67
2018-08-16T00:19:49.987Z,993.67
2018-08-16T00:20:49.987Z,993.66
2018-08-16T00:21:49.988Z,993.64
2018-08-16T00:22:49.999Z,993.62
2018-08-16T00:23:49.991Z,993.63
2018-08-16T00:24:49.991Z,993.66
2018-08-16T00:25:49.994Z,993.62
2018-08-16T00:26:49.992Z,993.64
2018-08-16T00:27:50.009Z,993.57
2018-08-16T00:28:49.995Z,993.6
2018-08-16T00:29:49.995Z,993.59
2018-08-16T00:30:49.997Z,993.57
2018-08-16T00:31:49.996Z,993.52
2018-08-16T00:32:50.010Z,993.54
2018-08-16T00:33:50.002Z,993.51
2018-08-16T00:34:50.001Z,993.49
2018-08-16T00:35:50.002Z,993.51
2018-08-16T00:36:50.001Z,993.43
2018-08-16T00:37:50.004Z,993.47
2018-08-16T00:38:50.009Z,993.43
2018-08-16T00:39:50.005Z,993.46
2018-08-16T00:40:50.014Z,993.45
2018-08-16T00:41:50.006Z,993.49
2018-08-16T00:42:50.007Z,993.44
2018-08-16T00:43:50.011Z,993.47
2018-08-16T00:44:50.011Z,993.47
2018-08-16T00:45:50.012Z,993.47
2018-08-16T00:46:50.012Z,993.42
2018-08-16T00:47:50.012Z,993.37
2018-08-16T00:48:50.017Z,993.38
2018-08-16T00:49:50.018Z,993.42
2018-08-16T00:50:50.015Z,993.36
2018-08-16T00:51:50.020Z,993.43
2018-08-16T00:52:50.014Z,993.39
2018-08-16T00:53:50.018Z,993.38
2018-08-16T00:54:50.018Z,993.37
2018-08-16T00:55:50.017Z,993.37
2018-08-16T00:56:50.019Z,993.41
2018-08-16T00:57:50.019Z,993.36
2018-08-16T00:58:50.021Z,993.37
2018-08-16T00:59:50.022Z,993.34
2018-08-16T01:00:50.021Z,993.34
2018-08-16T01:01:50.022Z,993.32
2018-08-16T01:02:50.023Z,993.3
2018-08-16T01:03:50.174Z,993.35
2018-08-16T01:04:50.024Z,993.32
2018-08-16T01:05:50.023Z,993.32
2018-08-16T01:06:50.026Z,993.33
2018-08-16T01:07:50.028Z,993.31
2018-08-16T01:08:50.031Z,993.32
2018-08-16T01:09:50.035Z,993.32
2018-08-16T01:10:50.028Z,993.28
2018-08-16T01:11:50.030Z,993.27
2018-08-16T01:12:50.030Z,993.3
2018-08-16T01:13:50.031Z,993.23
2018-08-16T01:14:50.030Z,993.25
2018-08-16T01:15:50.032Z,993.25
2018-08-16T01:16:50.031Z,993.24
2018-08-16T01:17:50.038Z,993.25
2018-08-16T01:18:50.034Z,993.22
2018-08-16T01:19:50.036Z,993.19
2018-08-16T01:20:50.035Z,993.19
2018-08-16T01:21:50.036Z,993.22
2018-08-16T01:22:50.037Z,993.19
2018-08-16T01:23:50.040Z,993.23
2018-08-16T01:24:50.036Z,993.24
2018-08-16T01:25:50.038Z,993.23
2018-08-16T01:26:50.038Z,993.26
2018-08-16T01:27:50.040Z,993.22
2018-08-16T01:28:50.041Z,993.25
2018-08-16T01:29:50.040Z,993.26
2018-08-16T01:30:50.041Z,993.25
2018-08-16T01:31:50.038Z,993.2
2018-08-16T01:32:50.064Z,993.2
2018-08-16T01:33:51.092Z,993.24
2018-08-16T01:34:50.044Z,993.18
2018-08-16T01:35:50.044Z,993.21
2018-08-16T01:36:50.044Z,993.21
2018-08-16T01:37:50.044Z,993.18
2018-08-16T01:38:50.051Z,993.17
2018-08-16T01:39:50.046Z,993.15
2018-08-16T01:40:50.043Z,993.18
2018-08-16T01:41:50.043Z,993.14
2018-08-16T01:42:50.044Z,993.15
2018-08-16T01:43:50.045Z,993.14
2018-08-16T01:44:50.046Z,993.17
2018-08-16T01:45:50.046Z,993.12
2018-08-16T01:46:50.045Z,993.15
2018-08-16T01:47:50.048Z,993.17
2018-08-16T01:48:50.050Z,993.14
2018-08-16T01:49:50.049Z,993.12
2018-08-16T01:50:50.049Z,993.06
2018-08-16T01:51:50.048Z,993.12
2018-08-16T01:52:50.050Z,993.09
2018-08-16T01:53:50.050Z,993.09
2018-08-16T01:54:50.050Z,993.11
2018-08-16T01:55:50.048Z,993.09
2018-08-16T01:56:50.054Z,993.1
2018-08-16T01:57:50.054Z,993.08
2018-08-16T01:58:50.063Z,993.11
2018-08-16T01:59:50.066Z,993.1
2018-08-16T02:00:50.056Z,993.09
2018-08-16T02:01:50.057Z,993.04
2018-08-16T02:02:50.057Z,993.05
2018-08-16T02:03:50.061Z,993.06
2018-08-16T02:04:50.057Z,993.03
2018-08-16T02:05:50.058Z,993.03
2018-08-16T02:06:50.057Z,993.03
2018-08-16T02:07:50.079Z,993.06
2018-08-16T02:08:50.062Z,993.04
2018-08-16T02:09:50.060Z,993.06
2018-08-16T02:10:50.062Z,993.06
2018-08-16T02:11:50.062Z,993.03
2018-08-16T02:12:50.062Z,993.03
2018-08-16T02:13:50.061Z,993.01
2018-08-16T02:14:50.064Z,993.06
2018-08-16T02:15:50.063Z,993.07
2018-08-16T02:16:50.063Z,993.06
2018-08-16T02:17:50.064Z,993.04
2018-08-16T02:18:50.066Z,993.06
2018-08-16T02:19:50.065Z,993.03
2018-08-16T02:20:50.073Z,993.04
2018-08-16T02:21:50.068Z,993.02
2018-08-16T02:22:50.066Z,993.02
2018-08-16T02:23:50.071Z,993.07
2018-08-16T02:24:50.071Z,993.01
2018-08-16T02:25:50.072Z,993.01
2018-08-16T02:26:50.068Z,992.99
2018-08-16T02:27:50.081Z,992.99
2018-08-16T02:28:50.076Z,993.02
2018-08-16T02:29:50.079Z,992.98
2018-08-16T02:30:50.072Z,992.99
2018-08-16T02:31:50.083Z,993.01
2018-08-16T02:32:50.073Z,993.01
2018-08-16T02:33:50.074Z,992.96
2018-08-16T02:34:50.074Z,993.01
2018-08-16T02:35:50.072Z,992.95
2018-08-16T02:36:50.075Z,992.95
2018-08-16T02:37:50.081Z,992.95
2018-08-16T02:38:50.085Z,993.01
2018-08-16T02:39:50.079Z,993.01
2018-08-16T02:40:50.079Z,993.03
2018-08-16T02:41:50.076Z,993.02
2018-08-16T02:42:50.076Z,993.01
2018-08-16T02:43:50.075Z,992.99
2018-08-16T02:44:50.081Z,993
2018-08-16T02:45:50.074Z,993
2018-08-16T02:46:50.080Z,993.02
2018-08-16T02:47:50.078Z,993.01
2018-08-16T02:48:50.080Z,992.98
2018-08-16T02:49:50.084Z,992.98
2018-08-16T02:50:50.126Z,993.03
2018-08-16T02:51:50.077Z,993.03
2018-08-16T02:52:50.087Z,993.04
2018-08-16T02:53:50.080Z,993
2018-08-16T02:54:50.127Z,992.99
2018-08-16T02:55:50.082Z,992.98
2018-08-16T02:56:50.081Z,992.97
2018-08-16T02:57:50.080Z,992.98
2018-08-16T02:58:50.080Z,992.94
2018-08-16T02:59:50.085Z,992.97
2018-08-16T03:00:50.086Z,992.97
2018-08-16T03:01:50.083Z,992.94
2018-08-16T03:02:50.080Z,992.96
2018-08-16T03:03:50.101Z,992.97
2018-08-16T03:04:50.084Z,992.96
2018-08-16T03:05:50.088Z,992.96
2018-08-16T03:06:50.090Z,992.97
2018-08-16T03:07:50.083Z,992.95
2018-08-16T03:08:50.082Z,992.97
2018-08-16T03:09:50.101Z,992.96
2018-08-16T03:10:50.083Z,992.95
2018-08-16T03:11:50.083Z,992.95
2018-08-16T03:12:50.090Z,992.94
2018-08-16T03:13:50.086Z,992.91
2018-08-16T03:14:50.088Z,992.93
2018-08-16T03:15:50.098Z,992.9
2018-08-16T03:16:50.091Z,992.92
2018-08-16T03:17:50.088Z,992.88
2018-08-16T03:18:50.083Z,992.83
2018-08-16T03:19:50.086Z,992.89
2018-08-16T03:20:50.085Z,992.8
2018-08-16T03:21:50.090Z,992.81
2018-08-16T03:22:50.094Z,992.82
2018-08-16T03:23:50.096Z,992.82
2018-08-16T03:24:50.089Z,992.78
2018-08-16T03:25:50.088Z,992.81
2018-08-16T03:26:50.094Z,992.82
2018-08-16T03:27:50.092Z,992.76
2018-08-16T03:28:50.088Z,992.79
2018-08-16T03:29:50.091Z,992.82
2018-08-16T03:30:50.090Z,992.79
2018-08-16T03:31:50.095Z,992.75
2018-08-16T03:32:50.095Z,992.78
2018-08-16T03:33:50.090Z,992.72
2018-08-16T03:34:50.095Z,992.76
2018-08-16T03:35:50.108Z,992.72
2018-08-16T03:36:50.098Z,992.71
2018-08-16T03:37:50.134Z,992.66
2018-08-16T03:38:50.103Z,992.66
2018-08-16T03:39:50.092Z,992.68
2018-08-16T03:40:50.098Z,992.64
2018-08-16T03:41:50.092Z,992.68
2018-08-16T03:42:50.093Z,992.66
2018-08-16T03:43:50.086Z,992.69
2018-08-16T03:44:50.094Z,992.71
2018-08-16T03:45:50.088Z,992.68
2018-08-16T03:46:50.090Z,992.69
2018-08-16T03:47:50.093Z,992.68
2018-08-16T03:48:50.087Z,992.68
2018-08-16T03:49:50.090Z,992.69
2018-08-16T03:50:50.084Z,992.66
2018-08-16T03:51:50.085Z,992.67
2018-08-16T03:52:50.089Z,992.65
2018-08-16T03:53:50.084Z,992.69
2018-08-16T03:54:50.085Z,992.64
2018-08-16T03:55:50.086Z,992.68
2018-08-16T03:56:50.085Z,992.66
2018-08-16T03:57:50.085Z,992.63
2018-08-16T03:58:50.085Z,992.66
2018-08-16T03:59:50.088Z,992.66
2018-08-16T04:00:50.100Z,992.65
2018-08-16T04:01:50.086Z,992.6
2018-08-16T04:02:50.088Z,992.64
2018-08-16T04:03:50.086Z,992.62
2018-08-16T04:04:50.082Z,992.64
2018-08-16T04:05:50.100Z,992.62
2018-08-16T04:06:50.083Z,992.69
2018-08-16T04:07:50.087Z,992.65
2018-08-16T04:08:50.083Z,992.68
2018-08-16T04:09:50.084Z,992.66
2018-08-16T04:10:50.084Z,992.68
2018-08-16T04:11:50.082Z,992.66
2018-08-16T04:12:50.080Z,992.72
2018-08-16T04:13:50.084Z,992.69
2018-08-16T04:14:50.085Z,992.66
2018-08-16T04:15:50.085Z,992.71
2018-08-16T04:16:50.088Z,992.67
2018-08-16T04:17:50.084Z,992.7
2018-08-16T04:18:50.080Z,992.69
2018-08-16T04:19:50.080Z,992.69
2018-08-16T04:20:50.081Z,992.7
2018-08-16T04:21:50.081Z,992.7
2018-08-16T04:22:50.081Z,992.75
2018-08-16T04:23:50.079Z,992.7
2018-08-16T04:24:50.080Z,992.76
2018-08-16T04:25:50.082Z,992.77
2018-08-16T04:26:50.077Z,992.77
2018-08-16T04:27:50.080Z,992.78
2018-08-16T04:28:50.080Z,992.76
2018-08-16T04:29:50.079Z,992.76
2018-08-16T04:30:50.078Z,992.75
2018-08-16T04:31:50.078Z,992.76
2018-08-16T04:32:50.080Z,992.77
2018-08-16T04:33:50.078Z,992.74
2018-08-16T04:34:50.078Z,992.77
2018-08-16T04:35:50.079Z,992.75
2018-08-16T04:36:50.077Z,992.77
2018-08-16T04:37:50.078Z,992.81
2018-08-16T04:38:50.080Z,992.83
2018-08-16T04:39:50.077Z,992.81
2018-08-16T04:40:50.080Z,992.81
2018-08-16T04:41:50.208Z,992.78
2018-08-16T04:42:50.076Z,992.8
2018-08-16T04:43:50.083Z,992.82
2018-08-16T04:44:50.077Z,992.81
2018-08-16T04:45:50.076Z,992.81
2018-08-16T04:46:50.086Z,992.78
2018-08-16T04:47:50.081Z,992.81
2018-08-16T04:48:50.079Z,992.81
2018-08-16T04:49:50.075Z,992.81
2018-08-16T04:50:50.078Z,992.82
2018-08-16T04:51:50.080Z,992.82
2018-08-16T04:52:50.076Z,992.82
2018-08-16T04:53:50.077Z,992.78
2018-08-16T04:54:50.080Z,992.79
2018-08-16T04:55:50.082Z,992.8
2018-08-16T04:56:50.158Z,992.82
2018-08-16T04:57:50.082Z,992.81
2018-08-16T04:58:50.083Z,992.81
2018-08-16T04:59:50.085Z,992.83
2018-08-16T05:00:50.086Z,992.85
2018-08-16T05:01:50.091Z,992.87
2018-08-16T05:02:50.087Z,992.85
2018-08-16T05:03:50.090Z,992.83
2018-08-16T05:04:50.089Z,992.9
2018-08-16T05:05:50.093Z,992.88
2018-08-16T05:06:50.095Z,992.9
2018-08-16T05:07:50.094Z,992.86
2018-08-16T05:08:50.107Z,992.86
2018-08-16T05:09:50.107Z,992.87
2018-08-16T05:10:50.102Z,992.89
2018-08-16T05:11:50.108Z,992.88
2018-08-16T05:12:50.110Z,992.87
2018-08-16T05:13:50.109Z,992.85
2018-08-16T05:14:50.112Z,992.79
2018-08-16T05:15:50.113Z,992.81
2018-08-16T05:16:50.116Z,992.8
2018-08-16T05:17:50.115Z,992.79
2018-08-16T05:18:50.117Z,992.8
2018-08-16T05:19:50.122Z,992.83
2018-08-16T05:20:50.132Z,992.82
2018-08-16T05:21:50.126Z,992.82
2018-08-16T05:22:50.129Z,992.84
2018-08-16T05:23:50.161Z,992.86
2018-08-16T05:24:50.138Z,992.83
2018-08-16T05:25:50.138Z,992.87
2018-08-16T05:26:50.141Z,992.88
2018-08-16T05:27:50.143Z,992.85
2018-08-16T05:28:50.145Z,992.85
2018-08-16T05:29:50.150Z,992.81
2018-08-16T05:30:50.153Z,992.81
2018-08-16T05:31:50.161Z,992.83
2018-08-16T05:32:50.158Z,992.83
2018-08-16T05:33:50.163Z,992.81
2018-08-16T05:34:50.165Z,992.82
2018-08-16T05:35:50.169Z,992.79
2018-08-16T05:36:50.174Z,992.8
2018-08-16T05:37:50.175Z,992.81
2018-08-16T05:38:50.176Z,992.79
2018-08-16T05:39:50.182Z,992.79
2018-08-16T05:40:50.186Z,992.76
2018-08-16T05:41:50.187Z,992.75
2018-08-16T05:42:50.252Z,992.76
2018-08-16T05:43:50.200Z,992.77
2018-08-16T05:44:50.196Z,992.76
2018-08-16T05:45:50.199Z,992.77
2018-08-16T05:46:50.201Z,992.79
2018-08-16T05:47:50.203Z,992.8
2018-08-16T05:48:50.205Z,992.84
2018-08-16T05:49:50.211Z,992.81
2018-08-16T05:50:50.240Z,992.8
2018-08-16T05:51:50.212Z,992.84
2018-08-16T05:52:50.217Z,992.8
2018-08-16T05:53:50.216Z,992.93
2018-08-16T05:54:50.218Z,992.75
2018-08-16T05:55:50.220Z,992.81
2018-08-16T05:56:50.223Z,992.81
2018-08-16T05:57:50.226Z,992.83
2018-08-16T05:58:50.236Z,992.83
2018-08-16T05:59:50.243Z,992.83
2018-08-16T06:00:50.245Z,992.87
2018-08-16T06:01:50.245Z,992.86
2018-08-16T06:02:50.246Z,992.86
2018-08-16T06:03:50.248Z,992.85
2018-08-16T06:04:50.243Z,992.83
2018-08-16T06:05:50.246Z,992.83
2018-08-16T06:06:50.243Z,992.81
2018-08-16T06:07:50.249Z,992.81
2018-08-16T06:08:50.261Z,992.76
2018-08-16T06:09:50.252Z,992.81
2018-08-16T06:10:50.261Z,992.8
2018-08-16T06:11:50.254Z,992.82
2018-08-16T06:12:50.258Z,992.83
2018-08-16T06:13:50.261Z,992.8
2018-08-16T06:14:50.265Z,992.68
2018-08-16T06:15:50.273Z,992.7
2018-08-16T06:16:50.272Z,992.69
2018-08-16T06:17:50.272Z,992.76
2018-08-16T06:18:50.284Z,992.72
2018-08-16T06:19:50.279Z,992.74
2018-08-16T06:20:50.285Z,992.79
2018-08-16T06:21:50.285Z,992.73
2018-08-16T06:22:50.292Z,992.75
2018-08-16T06:23:50.295Z,992.77
2018-08-16T06:24:50.295Z,992.79
2018-08-16T06:25:50.300Z,992.77
2018-08-16T06:26:50.309Z,992.76
2018-08-16T06:27:50.309Z,992.75
2018-08-16T06:28:50.312Z,992.71
2018-08-16T06:29:50.313Z,992.73
2018-08-16T06:30:50.318Z,992.73
2018-08-16T06:31:50.324Z,992.67
2018-08-16T06:32:50.332Z,992.69
2018-08-16T06:33:50.332Z,992.66
2018-08-16T06:34:50.335Z,992.63
2018-08-16T06:35:50.343Z,992.61
2018-08-16T06:36:50.346Z,992.58
2018-08-16T06:37:50.350Z,992.59
2018-08-16T06:38:50.389Z,992.58
2018-08-16T06:39:50.391Z,992.59
2018-08-16T06:40:50.370Z,992.55
2018-08-16T06:41:50.373Z,992.55
2018-08-16T06:42:50.396Z,992.53
2018-08-16T06:43:50.383Z,992.55
2018-08-16T06:44:50.390Z,992.5
2018-08-16T06:45:50.394Z,992.53
2018-08-16T06:46:50.407Z,992.52
2018-08-16T06:47:50.407Z,992.52
2018-08-16T06:48:50.416Z,992.52
2018-08-16T06:49:50.420Z,992.51
2018-08-16T06:50:50.424Z,992.54
2018-08-16T06:51:50.446Z,992.52
2018-08-16T06:52:50.438Z,992.5
2018-08-16T06:53:50.445Z,992.51
2018-08-16T06:54:50.450Z,992.54
2018-08-16T06:55:50.458Z,992.51
2018-08-16T06:56:50.468Z,992.46
2018-08-16T06:57:50.470Z,992.46
2018-08-16T06:58:50.479Z,992.47
2018-08-16T06:59:50.484Z,992.45
2018-08-16T07:00:50.489Z,992.45
2018-08-16T07:01:50.497Z,992.46
2018-08-16T07:02:50.506Z,992.45
2018-08-16T07:03:50.520Z,992.42
2018-08-16T07:04:50.531Z,992.47
2018-08-16T07:05:50.524Z,992.44
2018-08-16T07:06:50.533Z,992.42
2018-08-16T07:07:50.550Z,992.35
2018-08-16T07:08:50.550Z,992.31
2018-08-16T07:09:50.551Z,992.32
2018-08-16T07:10:50.559Z,992.31
2018-08-16T07:11:50.593Z,992.34
2018-08-16T07:12:50.572Z,992.28
2018-08-16T07:13:50.579Z,992.3
2018-08-16T07:14:50.584Z,992.28
2018-08-16T07:15:50.597Z,992.28
2018-08-16T07:16:50.599Z,992.29
2018-08-16T07:17:50.608Z,992.28
2018-08-16T07:18:50.707Z,992.31
2018-08-16T07:19:50.620Z,992.29
2018-08-16T07:20:50.637Z,992.28
2018-08-16T07:21:50.637Z,992.27
2018-08-16T07:22:50.643Z,992.32
2018-08-16T07:23:50.651Z,992.28
2018-08-16T07:24:50.787Z,992.3
2018-08-16T07:25:50.666Z,992.31
2018-08-16T07:26:50.672Z,992.3
2018-08-16T07:27:50.681Z,992.26
2018-08-16T07:28:50.694Z,992.24
2018-08-16T07:29:50.735Z,992.26
2018-08-16T07:30:50.701Z,992.24
2018-08-16T07:31:50.720Z,992.22
2018-08-16T07:32:50.714Z,992.24
2018-08-16T07:33:50.733Z,992.2
2018-08-16T07:34:50.735Z,992.15
2018-08-16T07:35:50.741Z,992.18
2018-08-16T07:36:50.745Z,992.16
2018-08-16T07:37:50.783Z,992.15
2018-08-16T07:38:50.761Z,992.14
2018-08-16T07:39:50.771Z,992.1
2018-08-16T07:40:50.781Z,992.12
2018-08-16T07:41:50.787Z,992.12
2018-08-16T07:42:50.784Z,992.12
2018-08-16T07:43:50.804Z,992.11
2018-08-16T07:44:50.806Z,992.08
2018-08-16T07:45:50.974Z,992.12
2018-08-16T07:46:50.817Z,992.14
2018-08-16T07:47:50.821Z,992.08
2018-08-16T07:48:50.826Z,992.05
2018-08-16T07:49:50.829Z,992.09
2018-08-16T07:50:50.839Z,992.11
2018-08-16T07:51:50.894Z,992.11
2018-08-16T07:52:50.850Z,992.11
2018-08-16T07:53:50.852Z,992.09
2018-08-16T07:54:50.858Z,992.06
2018-08-16T07:55:50.866Z,992.05
2018-08-16T07:56:50.927Z,992.08
2018-08-16T07:57:50.877Z,992.06
2018-08-16T07:58:50.885Z,992.03
2018-08-16T07:59:50.891Z,992.04
2018-08-16T08:00:50.909Z,992.06
2018-08-16T08:01:50.910Z,992.09
2018-08-16T08:02:50.913Z,992.08
2018-08-16T08:03:50.917Z,992.05
2018-08-16T08:04:50.927Z,992.03
2018-08-16T08:05:50.932Z,992.09
2018-08-16T08:06:50.957Z,992.08
2018-08-16T08:07:50.945Z,992.04
2018-08-16T08:08:50.983Z,992.09
2018-08-16T08:09:51.017Z,992.02
2018-08-16T08:10:50.969Z,992.01
2018-08-16T08:11:50.976Z,992.05
2018-08-16T08:12:50.983Z,992.04
2018-08-16T08:13:50.986Z,992.03
2018-08-16T08:14:50.998Z,992.06
2018-08-16T08:15:51.004Z,992.06
2018-08-16T08:16:51.011Z,992.05
2018-08-16T08:17:51.020Z,992
2018-08-16T08:18:51.038Z,992
2018-08-16T08:19:51.035Z,991.98
2018-08-16T08:20:51.045Z,991.97
2018-08-16T08:21:51.050Z,991.95
2018-08-16T08:22:51.060Z,991.93
2018-08-16T08:23:51.068Z,991.96
2018-08-16T08:24:51.076Z,991.92
2018-08-16T08:25:51.085Z,991.89
2018-08-16T08:26:51.092Z,991.93
2018-08-16T08:27:51.101Z,991.92
2018-08-16T08:28:51.116Z,991.9
2018-08-16T08:29:51.117Z,991.86
2018-08-16T08:30:51.127Z,991.87
2018-08-16T08:31:51.133Z,991.88
2018-08-16T08:32:51.143Z,991.87
2018-08-16T08:33:51.162Z,991.89
2018-08-16T08:34:51.160Z,991.89
2018-08-16T08:35:51.173Z,991.85
2018-08-16T08:36:51.171Z,991.81
2018-08-16T08:37:51.181Z,991.83
2018-08-16T08:38:51.227Z,991.8
2018-08-16T08:39:51.203Z,991.79
2018-08-16T08:40:51.206Z,991.76
2018-08-16T08:41:51.220Z,991.77
2018-08-16T08:42:51.221Z,991.78
2018-08-16T08:43:51.233Z,991.78
2018-08-16T08:44:51.238Z,991.74
2018-08-16T08:45:51.246Z,991.78
2018-08-16T08:46:51.254Z,991.77
2018-08-16T08:47:51.263Z,991.74
2018-08-16T08:48:51.274Z,991.72
2018-08-16T08:49:51.282Z,991.72
2018-08-16T08:50:51.288Z,991.72
2018-08-16T08:51:51.308Z,991.72
2018-08-16T08:52:51.307Z,991.69
2018-08-16T08:53:51.317Z,991.68
2018-08-16T08:54:51.389Z,991.66
2018-08-16T08:55:51.327Z,991.64
2018-08-16T08:56:51.336Z,991.64
2018-08-16T08:57:51.345Z,991.6
2018-08-16T08:58:51.352Z,991.63
2018-08-16T08:59:51.375Z,991.6
2018-08-16T09:00:51.406Z,991.52
2018-08-16T09:01:51.372Z,991.54
2018-08-16T09:02:51.378Z,991.56
2018-08-16T09:03:51.383Z,991.52
2018-08-16T09:04:51.390Z,991.51
2018-08-16T09:05:51.397Z,991.47
2018-08-16T09:06:51.477Z,991.47
2018-08-16T09:07:51.421Z,991.45
2018-08-16T09:08:51.425Z,991.47
2018-08-16T09:09:51.442Z,991.47
2018-08-16T09:10:51.442Z,991.5
2018-08-16T09:11:51.437Z,991.45
2018-08-16T09:12:51.443Z,991.44
2018-08-16T09:13:51.452Z,991.41
2018-08-16T09:14:51.551Z,991.42
2018-08-16T09:15:51.456Z,991.41
2018-08-16T09:16:51.479Z,991.39
2018-08-16T09:17:51.485Z,991.39
2018-08-16T09:18:51.507Z,991.41
2018-08-16T09:19:52.291Z,991.39
2018-08-16T09:20:51.499Z,991.43
2018-08-16T09:21:51.513Z,991.39
2018-08-16T09:22:51.508Z,991.41
2018-08-16T09:23:51.529Z,991.34
2018-08-16T09:24:51.516Z,991.35
2018-08-16T09:25:51.525Z,991.36
2018-08-16T09:26:51.534Z,991.37
2018-08-16T09:27:51.529Z,991.34
2018-08-16T09:28:51.533Z,991.33
2018-08-16T09:29:51.536Z,991.29
2018-08-16T09:30:51.539Z,991.29
2018-08-16T09:31:51.548Z,991.27
2018-08-16T09:32:51.552Z,991.26
2018-08-16T09:33:51.564Z,991.25
2018-08-16T09:34:51.566Z,991.28
2018-08-16T09:35:51.570Z,991.22
2018-08-16T09:36:51.572Z,991.24
2018-08-16T09:37:51.574Z,991.19
2018-08-16T09:38:51.587Z,991.19
2018-08-16T09:39:51.612Z,991.13
2018-08-16T09:40:51.592Z,991.14
2018-08-16T09:41:51.596Z,991.12
2018-08-16T09:42:51.598Z,991.12
2018-08-16T09:43:51.604Z,991.09
2018-08-16T09:44:51.614Z,991.07
2018-08-16T09:45:51.614Z,991.1
2018-08-16T09:46:51.621Z,991.08
2018-08-16T09:47:51.627Z,991.13
2018-08-16T09:48:51.636Z,991.1
2018-08-16T09:49:51.633Z,991.09
2018-08-16T09:50:51.641Z,991.08
2018-08-16T09:51:51.646Z,991.07
2018-08-16T09:52:51.651Z,991.03
2018-08-16T09:53:51.657Z,991.02
2018-08-16T09:54:51.667Z,990.98
2018-08-16T09:55:51.667Z,990.99
2018-08-16T09:56:51.676Z,990.97
2018-08-16T09:57:51.687Z,991.02
2018-08-16T09:58:51.683Z,990.95
2018-08-16T09:59:51.688Z,990.95
2018-08-16T10:00:51.691Z,990.96
2018-08-16T10:01:51.703Z,990.93
2018-08-16T10:02:51.703Z,990.94
2018-08-16T10:03:51.708Z,990.95
2018-08-16T10:04:51.713Z,990.96
2018-08-16T10:05:51.720Z,990.95
2018-08-16T10:06:51.736Z,990.92
2018-08-16T10:07:51.730Z,990.92
2018-08-16T10:08:51.735Z,990.9
2018-08-16T10:09:51.741Z,990.89
2018-08-16T10:10:51.746Z,990.9
2018-08-16T10:11:51.747Z,990.87
2018-08-16T10:12:51.755Z,990.88
2018-08-16T10:13:51.759Z,990.84
2018-08-16T10:14:51.774Z,990.85
2018-08-16T10:15:51.778Z,990.87
2018-08-16T10:16:51.777Z,990.84
2018-08-16T10:17:51.786Z,990.86
2018-08-16T10:18:51.786Z,990.81
2018-08-16T10:19:51.796Z,990.82
2018-08-16T10:20:51.850Z,990.84
2018-08-16T10:21:51.816Z,990.79
2018-08-16T10:22:51.808Z,990.78
2018-08-16T10:23:51.811Z,990.78
2018-08-16T10:24:51.820Z,990.76
2018-08-16T10:25:51.822Z,990.72
2018-08-16T10:26:51.840Z,990.68
2018-08-16T10:27:51.839Z,990.66
2018-08-16T10:28:51.842Z,990.67
2018-08-16T10:29:51.841Z,990.7
2018-08-16T10:30:51.850Z,990.67
2018-08-16T10:31:51.851Z,990.7
2018-08-16T10:32:51.857Z,990.65
2018-08-16T10:33:51.861Z,990.63
2018-08-16T10:34:51.869Z,990.62
2018-08-16T10:35:51.875Z,990.64
2018-08-16T10:36:51.880Z,990.57
2018-08-16T10:37:51.883Z,990.58
2018-08-16T10:38:51.890Z,990.54
2018-08-16T10:39:51.894Z,990.54
2018-08-16T10:40:51.895Z,990.53
2018-08-16T10:41:51.917Z,990.51
2018-08-16T10:42:51.912Z,990.48
2018-08-16T10:43:51.913Z,990.48
2018-08-16T10:44:51.919Z,990.41
2018-08-16T10:45:51.923Z,990.41
2018-08-16T10:46:51.926Z,990.44
2018-08-16T10:47:51.933Z,990.42
2018-08-16T10:48:51.940Z,990.39
2018-08-16T10:49:51.947Z,990.38
2018-08-16T10:50:51.950Z,990.37
2018-08-16T10:51:51.954Z,990.33
2018-08-16T10:52:51.974Z,990.34
2018-08-16T10:53:52.032Z,990.35
2018-08-16T10:54:51.979Z,990.35
2018-08-16T10:55:51.986Z,990.35
2018-08-16T10:56:51.982Z,990.36
2018-08-16T10:57:51.988Z,990.31
2018-08-16T10:58:52.006Z,990.32
2018-08-16T10:59:52.001Z,990.32
2018-08-16T11:00:52.005Z,990.31
2018-08-16T11:01:52.012Z,990.26
2018-08-16T11:02:52.013Z,990.28
2018-08-16T11:03:52.022Z,990.27
2018-08-16T11:04:52.024Z,990.23
2018-08-16T11:05:52.088Z,990.2
2018-08-16T11:06:52.046Z,990.24
2018-08-16T11:07:52.049Z,990.15
2018-08-16T11:08:52.050Z,990.21
2018-08-16T11:09:52.052Z,990.14
2018-08-16T11:10:52.057Z,990.2
2018-08-16T11:11:52.061Z,990.21
2018-08-16T11:12:52.065Z,990.19
2018-08-16T11:13:52.077Z,990.19
2018-08-16T11:14:52.081Z,990.19
2018-08-16T11:15:52.081Z,990.17
2018-08-16T11:16:52.086Z,990.12
2018-08-16T11:17:52.094Z,990.18
2018-08-16T11:18:52.102Z,990.11
2018-08-16T11:19:52.102Z,990.07
2018-08-16T11:20:52.106Z,990.08
2018-08-16T11:21:52.241Z,990.06
2018-08-16T11:22:52.117Z,990.08
2018-08-16T11:23:52.124Z,990.09
2018-08-16T11:24:52.128Z,990.03
2018-08-16T11:25:52.132Z,990.04
2018-08-16T11:26:52.134Z,990.08
2018-08-16T11:27:52.148Z,990.04
2018-08-16T11:28:52.151Z,990
2018-08-16T11:29:52.159Z,990.01
2018-08-16T11:30:52.158Z,989.98
2018-08-16T11:31:52.165Z,990
2018-08-16T11:32:52.170Z,989.98
2018-08-16T11:33:52.176Z,989.97
2018-08-16T11:34:52.180Z,989.96
2018-08-16T11:35:52.187Z,989.95
2018-08-16T11:36:52.193Z,989.94
2018-08-16T11:37:52.260Z,989.94
2018-08-16T11:38:52.201Z,989.96
2018-08-16T11:39:52.214Z,989.91
2018-08-16T11:40:52.222Z,989.89
2018-08-16T11:41:52.230Z,989.85
2018-08-16T11:42:52.223Z,989.81
2018-08-16T11:43:52.234Z,989.79
2018-08-16T11:44:52.231Z,989.83
2018-08-16T11:45:52.250Z,989.83
2018-08-16T11:46:52.241Z,989.81
2018-08-16T11:47:52.249Z,989.77
2018-08-16T11:48:52.251Z,989.72
2018-08-16T11:49:52.259Z,989.74
2018-08-16T11:50:52.264Z,989.71
2018-08-16T11:51:52.270Z,989.65
2018-08-16T11:52:52.276Z,989.65
2018-08-16T11:53:52.277Z,989.72
2018-08-16T11:54:52.286Z,989.67
2018-08-16T11:55:52.290Z,989.65
2018-08-16T11:56:52.296Z,989.65
2018-08-16T11:57:52.306Z,989.66
2018-08-16T11:58:52.308Z,989.63
2018-08-16T11:59:52.311Z,989.64
2018-08-16T12:00:52.323Z,989.59
2018-08-16T12:01:52.324Z,989.61
2018-08-16T12:02:52.332Z,989.6
2018-08-16T12:03:52.344Z,989.58
2018-08-16T12:04:52.336Z,989.58
2018-08-16T12:05:52.342Z,989.55
2018-08-16T12:06:52.349Z,989.55
2018-08-16T12:07:52.355Z,989.53
2018-08-16T12:08:52.361Z,989.54
2018-08-16T12:09:52.365Z,989.57
2018-08-16T12:10:52.371Z,989.53
2018-08-16T12:11:52.382Z,989.54
2018-08-16T12:12:52.396Z,989.48
2018-08-16T12:13:52.385Z,989.52
2018-08-16T12:14:52.392Z,989.52
2018-08-16T12:15:52.396Z,989.52
2018-08-16T12:16:52.404Z,989.52
2018-08-16T12:17:52.407Z,989.52
2018-08-16T12:18:52.415Z,989.54
2018-08-16T12:19:52.424Z,989.51
2018-08-16T12:20:52.424Z,989.51
2018-08-16T12:21:52.429Z,989.5
2018-08-16T12:22:52.434Z,989.55
2018-08-16T12:23:52.451Z,989.47
2018-08-16T12:24:52.446Z,989.49
2018-08-16T12:25:52.453Z,989.48
2018-08-16T12:26:52.455Z,989.47
2018-08-16T12:27:52.474Z,989.39
2018-08-16T12:28:52.537Z,989.42
2018-08-16T12:29:52.471Z,989.42
2018-08-16T12:30:52.477Z,989.37